<?xml version="1.0" encoding="UTF-8" standalone="no" ?>
<gpx xmlns="http://www.topografix.com/GPX/1/1" xmlns:xsi="http://www.w3.org/2001/XMLSchema-instance" xsi:schemaLocation="http://www.topografix.com/GPX/1/1 http://www.topografix.com/GPX/1/1/gpx.xsd" version="1.1" creator="VisuGPX - https://www.visugpx.com">
  <metadata>
    <name>Abondance v3chapelledabondance9km5+780</name>
  </metadata>
  <wpt lat="46.28025" lon="6.71988">
    <ele>919.1</ele>
    <name><![CDATA[Abondance v3chapelledabondance9km5+780]]></name>
    <type><![CDATA[Generic]]></type>
  </wpt>
  <trk>
    <name><![CDATA[Abondance v3chapelledabondance9km5+780]]></name>
    <extensions>
      <line xmlns="http://www.topografix.com/GPX/gpx_style/0/2">
        <color>0000FF</color>
        <width>4</width>
      </line>
    </extensions>
    <trkseg>
      <trkpt lat="46.28025" lon="6.71988">
        <ele>919.1</ele>
        <time>2022-04-28T18:47:36Z</time>
      </trkpt>
      <trkpt lat="46.27933" lon="6.72035">
        <ele>923.4</ele>
        <time>2022-04-28T18:47:48Z</time>
      </trkpt>
      <trkpt lat="46.27867" lon="6.72085">
        <ele>925.8</ele>
        <time>2022-04-28T18:47:53Z</time>
      </trkpt>
      <trkpt lat="46.27852" lon="6.72138">
        <ele>926.6</ele>
        <time>2022-04-28T18:48:09Z</time>
      </trkpt>
      <trkpt lat="46.27771" lon="6.72179">
        <ele>937</ele>
        <time>2022-04-28T18:48:22Z</time>
      </trkpt>
      <trkpt lat="46.2763" lon="6.72231">
        <ele>965</ele>
        <time>2022-04-28T18:48:28Z</time>
      </trkpt>
      <trkpt lat="46.27605" lon="6.72263">
        <ele>971.3</ele>
        <time>2022-04-28T18:48:39Z</time>
      </trkpt>
      <trkpt lat="46.27634" lon="6.72256">
        <ele>970.6</ele>
        <time>2022-04-28T18:48:47Z</time>
      </trkpt>
      <trkpt lat="46.27661" lon="6.72291">
        <ele>976.3</ele>
        <time>2022-04-28T18:49:05Z</time>
      </trkpt>
      <trkpt lat="46.27688" lon="6.72338">
        <ele>1005.5</ele>
        <time>2022-04-28T18:49:07Z</time>
      </trkpt>
      <trkpt lat="46.27619" lon="6.72402">
        <ele>1015.8</ele>
        <time>2022-04-28T18:49:25Z</time>
      </trkpt>
      <trkpt lat="46.27606" lon="6.72468">
        <ele>1037.6</ele>
        <time>2022-04-28T18:49:40Z</time>
      </trkpt>
      <trkpt lat="46.27655" lon="6.72506">
        <ele>1064.1</ele>
        <time>2022-04-28T18:49:44Z</time>
      </trkpt>
      <trkpt lat="46.27702" lon="6.72525">
        <ele>1076.5</ele>
        <time>2022-04-28T18:49:58Z</time>
      </trkpt>
      <trkpt lat="46.27762" lon="6.726">
        <ele>1106.9</ele>
        <time>2022-04-28T18:50:05Z</time>
      </trkpt>
      <trkpt lat="46.27786" lon="6.72737">
        <ele>1132.2</ele>
        <time>2022-04-28T18:50:21Z</time>
      </trkpt>
      <trkpt lat="46.27866" lon="6.72995">
        <ele>1165.9</ele>
        <time>2022-04-28T18:50:29Z</time>
      </trkpt>
      <trkpt lat="46.27899" lon="6.73081">
        <ele>1153.4</ele>
        <time>2022-04-28T18:50:34Z</time>
      </trkpt>
      <trkpt lat="46.27845" lon="6.73227">
        <ele>1180.6</ele>
        <time>2022-04-28T18:50:45Z</time>
      </trkpt>
      <trkpt lat="46.27866" lon="6.73398">
        <ele>1204.4</ele>
        <time>2022-04-28T18:50:48Z</time>
      </trkpt>
      <trkpt lat="46.27866" lon="6.73549">
        <ele>1228</ele>
        <time>2022-04-28T18:51:00Z</time>
      </trkpt>
      <trkpt lat="46.27819" lon="6.73652">
        <ele>1243.9</ele>
        <time>2022-04-28T18:51:05Z</time>
      </trkpt>
      <trkpt lat="46.27736" lon="6.73549">
        <ele>1284</ele>
        <time>2022-04-28T18:51:09Z</time>
      </trkpt>
      <trkpt lat="46.27641" lon="6.73484">
        <ele>1316.9</ele>
        <time>2022-04-28T18:51:20Z</time>
      </trkpt>
      <trkpt lat="46.2759" lon="6.73381">
        <ele>1331</ele>
        <time>2022-04-28T18:51:33Z</time>
      </trkpt>
      <trkpt lat="46.27537" lon="6.73301">
        <ele>1346.2</ele>
        <time>2022-04-28T18:51:53Z</time>
      </trkpt>
      <trkpt lat="46.2749" lon="6.73313">
        <ele>1354.6</ele>
        <time>2022-04-28T18:51:57Z</time>
      </trkpt>
      <trkpt lat="46.27402" lon="6.73373">
        <ele>1342.7</ele>
        <time>2022-04-28T18:52:05Z</time>
      </trkpt>
      <trkpt lat="46.2737" lon="6.73433">
        <ele>1345.9</ele>
        <time>2022-04-28T18:52:15Z</time>
      </trkpt>
      <trkpt lat="46.2733" lon="6.73434">
        <ele>1335.4</ele>
        <time>2022-04-28T18:52:24Z</time>
      </trkpt>
      <trkpt lat="46.27278" lon="6.73426">
        <ele>1326.7</ele>
        <time>2022-04-28T18:52:34Z</time>
      </trkpt>
      <trkpt lat="46.27282" lon="6.73479">
        <ele>1329.5</ele>
        <time>2022-04-28T18:52:45Z</time>
      </trkpt>
      <trkpt lat="46.27317" lon="6.73526">
        <ele>1336.9</ele>
        <time>2022-04-28T18:53:01Z</time>
      </trkpt>
      <trkpt lat="46.27377" lon="6.73668">
        <ele>1360</ele>
        <time>2022-04-28T18:53:08Z</time>
      </trkpt>
      <trkpt lat="46.27388" lon="6.73726">
        <ele>1367.7</ele>
        <time>2022-04-28T18:53:17Z</time>
      </trkpt>
      <trkpt lat="46.27407" lon="6.73782">
        <ele>1380.5</ele>
        <time>2022-04-28T18:53:19Z</time>
      </trkpt>
      <trkpt lat="46.27421" lon="6.7382">
        <ele>1388</ele>
        <time>2022-04-28T18:53:34Z</time>
      </trkpt>
      <trkpt lat="46.2746" lon="6.7384">
        <ele>1394.2</ele>
        <time>2022-04-28T18:53:44Z</time>
      </trkpt>
      <trkpt lat="46.27454" lon="6.73978">
        <ele>1408.4</ele>
        <time>2022-04-28T18:54:04Z</time>
      </trkpt>
      <trkpt lat="46.27511" lon="6.74171">
        <ele>1396.4</ele>
        <time>2022-04-28T18:54:10Z</time>
      </trkpt>
      <trkpt lat="46.27555" lon="6.74368">
        <ele>1393</ele>
        <time>2022-04-28T18:54:14Z</time>
      </trkpt>
      <trkpt lat="46.27609" lon="6.74621">
        <ele>1391.7</ele>
        <time>2022-04-28T18:54:32Z</time>
      </trkpt>
      <trkpt lat="46.27511" lon="6.74759">
        <ele>1394.7</ele>
        <time>2022-04-28T18:54:48Z</time>
      </trkpt>
      <trkpt lat="46.27466" lon="6.74922">
        <ele>1411.2</ele>
        <time>2022-04-28T18:55:08Z</time>
      </trkpt>
      <trkpt lat="46.27523" lon="6.75016">
        <ele>1408.3</ele>
        <time>2022-04-28T18:55:20Z</time>
      </trkpt>
      <trkpt lat="46.2765" lon="6.75025">
        <ele>1392.2</ele>
        <time>2022-04-28T18:55:37Z</time>
      </trkpt>
      <trkpt lat="46.278" lon="6.75275">
        <ele>1410.2</ele>
        <time>2022-04-28T18:55:45Z</time>
      </trkpt>
      <trkpt lat="46.27827" lon="6.75447">
        <ele>1411.6</ele>
        <time>2022-04-28T18:55:47Z</time>
      </trkpt>
      <trkpt lat="46.27907" lon="6.75649">
        <ele>1397.4</ele>
        <time>2022-04-28T18:56:03Z</time>
      </trkpt>
      <trkpt lat="46.27999" lon="6.7579">
        <ele>1400.7</ele>
        <time>2022-04-28T18:56:17Z</time>
      </trkpt>
      <trkpt lat="46.28013" lon="6.76082">
        <ele>1397</ele>
        <time>2022-04-28T18:56:36Z</time>
      </trkpt>
      <trkpt lat="46.28053" lon="6.75878">
        <ele>1377.1</ele>
        <time>2022-04-28T18:56:43Z</time>
      </trkpt>
      <trkpt lat="46.2807" lon="6.75791">
        <ele>1361.5</ele>
        <time>2022-04-28T18:56:48Z</time>
      </trkpt>
      <trkpt lat="46.28078" lon="6.75776">
        <ele>1356.2</ele>
        <time>2022-04-28T18:57:00Z</time>
      </trkpt>
      <trkpt lat="46.28103" lon="6.75796">
        <ele>1347</ele>
        <time>2022-04-28T18:57:08Z</time>
      </trkpt>
      <trkpt lat="46.28128" lon="6.75584">
        <ele>1309.7</ele>
        <time>2022-04-28T18:57:27Z</time>
      </trkpt>
      <trkpt lat="46.28231" lon="6.75714">
        <ele>1280.7</ele>
        <time>2022-04-28T18:57:38Z</time>
      </trkpt>
      <trkpt lat="46.28235" lon="6.75916">
        <ele>1256.9</ele>
        <time>2022-04-28T18:57:49Z</time>
      </trkpt>
      <trkpt lat="46.28311" lon="6.76089">
        <ele>1242.7</ele>
        <time>2022-04-28T18:57:59Z</time>
      </trkpt>
      <trkpt lat="46.28341" lon="6.76149">
        <ele>1240.2</ele>
        <time>2022-04-28T18:58:16Z</time>
      </trkpt>
      <trkpt lat="46.28332" lon="6.76183">
        <ele>1241.5</ele>
        <time>2022-04-28T18:58:20Z</time>
      </trkpt>
      <trkpt lat="46.28366" lon="6.76225">
        <ele>1233.2</ele>
        <time>2022-04-28T18:58:22Z</time>
      </trkpt>
      <trkpt lat="46.28398" lon="6.76312">
        <ele>1229.2</ele>
        <time>2022-04-28T18:58:25Z</time>
      </trkpt>
      <trkpt lat="46.285" lon="6.76396">
        <ele>1216.2</ele>
        <time>2022-04-28T18:58:29Z</time>
      </trkpt>
      <trkpt lat="46.28531" lon="6.76396">
        <ele>1211.1</ele>
        <time>2022-04-28T18:58:42Z</time>
      </trkpt>
      <trkpt lat="46.28541" lon="6.76512">
        <ele>1204.1</ele>
        <time>2022-04-28T18:58:48Z</time>
      </trkpt>
      <trkpt lat="46.2856" lon="6.7661">
        <ele>1206.2</ele>
        <time>2022-04-28T18:58:52Z</time>
      </trkpt>
      <trkpt lat="46.28636" lon="6.76677">
        <ele>1195.7</ele>
        <time>2022-04-28T18:59:04Z</time>
      </trkpt>
      <trkpt lat="46.28659" lon="6.76709">
        <ele>1191.3</ele>
        <time>2022-04-28T18:59:07Z</time>
      </trkpt>
      <trkpt lat="46.28654" lon="6.76624">
        <ele>1181.5</ele>
        <time>2022-04-28T18:59:20Z</time>
      </trkpt>
      <trkpt lat="46.28654" lon="6.76575">
        <ele>1179.6</ele>
        <time>2022-04-28T18:59:27Z</time>
      </trkpt>
      <trkpt lat="46.28808" lon="6.76695">
        <ele>1159.4</ele>
        <time>2022-04-28T18:59:40Z</time>
      </trkpt>
      <trkpt lat="46.28887" lon="6.76918">
        <ele>1140.6</ele>
        <time>2022-04-28T18:59:57Z</time>
      </trkpt>
      <trkpt lat="46.28904" lon="6.76931">
        <ele>1135.2</ele>
        <time>2022-04-28T19:00:11Z</time>
      </trkpt>
      <trkpt lat="46.28905" lon="6.76888">
        <ele>1135.5</ele>
        <time>2022-04-28T19:00:31Z</time>
      </trkpt>
      <trkpt lat="46.28896" lon="6.76777">
        <ele>1126.7</ele>
        <time>2022-04-28T19:00:34Z</time>
      </trkpt>
      <trkpt lat="46.28881" lon="6.76732">
        <ele>1128.6</ele>
        <time>2022-04-28T19:00:46Z</time>
      </trkpt>
      <trkpt lat="46.28898" lon="6.7672">
        <ele>1120.6</ele>
        <time>2022-04-28T19:00:56Z</time>
      </trkpt>
      <trkpt lat="46.28958" lon="6.76893">
        <ele>1114.9</ele>
        <time>2022-04-28T19:01:11Z</time>
      </trkpt>
      <trkpt lat="46.28974" lon="6.76886">
        <ele>1108.9</ele>
        <time>2022-04-28T19:01:19Z</time>
      </trkpt>
      <trkpt lat="46.28952" lon="6.76719">
        <ele>1098.6</ele>
        <time>2022-04-28T19:01:22Z</time>
      </trkpt>
      <trkpt lat="46.29006" lon="6.7679">
        <ele>1092.8</ele>
        <time>2022-04-28T19:01:36Z</time>
      </trkpt>
      <trkpt lat="46.29071" lon="6.77073">
        <ele>1070.3</ele>
        <time>2022-04-28T19:01:41Z</time>
      </trkpt>
      <trkpt lat="46.29107" lon="6.77254">
        <ele>1057.4</ele>
        <time>2022-04-28T19:01:46Z</time>
      </trkpt>
      <trkpt lat="46.29107" lon="6.7746">
        <ele>1042</ele>
        <time>2022-04-28T19:01:51Z</time>
      </trkpt>
      <trkpt lat="46.29162" lon="6.77745">
        <ele>1028.4</ele>
        <time>2022-04-28T19:01:59Z</time>
      </trkpt>
      <trkpt lat="46.2919" lon="6.77899">
        <ele>1017.6</ele>
        <time>2022-04-28T19:02:16Z</time>
      </trkpt>
      <trkpt lat="46.29162" lon="6.78067">
        <ele>1011.4</ele>
        <time>2022-04-28T19:02:22Z</time>
      </trkpt>
      <trkpt lat="46.29168" lon="6.78161">
        <ele>1006</ele>
        <time>2022-04-28T19:02:25Z</time>
      </trkpt>
      <trkpt lat="46.29274" lon="6.78189">
        <ele>992.3</ele>
        <time>2022-04-28T19:02:36Z</time>
      </trkpt>
      <trkpt lat="46.29303" lon="6.78086">
        <ele>991.1</ele>
        <time>2022-04-28T19:02:49Z</time>
      </trkpt>
      <trkpt lat="46.29534" lon="6.78045">
        <ele>996.9</ele>
        <time>2022-04-28T19:03:03Z</time>
      </trkpt>
      <trkpt lat="46.29586" lon="6.78">
        <ele>999.5</ele>
        <time>2022-04-28T19:03:08Z</time>
      </trkpt>
    </trkseg>
  </trk>
</gpx>